createdAt,value
2022-08-16T00:00:04.271Z,5.28
2022-08-16T00:02:36.247Z,5.68
2022-08-16T00:05:06.991Z,4.93
2022-08-16T00:07:34.602Z,5.25
2022-08-16T00:10:02.556Z,4.90
2022-08-16T00:12:33.646Z,4.78
2022-08-16T00:15:06.212Z,4.97
2022-08-16T00:17:56.246Z,5.03
2022-08-16T00:20:24.968Z,5.20
2022-08-16T00:22:53.082Z,5.23
2022-08-16T00:26:33.437Z,5.43
2022-08-16T00:28:12.912Z,5.18
2022-08-16T00:30:41.085Z,5.43
2022-08-16T00:33:10.355Z,5.65
2022-08-16T00:35:40.781Z,5.43
2022-08-16T00:38:40.301Z,5.30
2022-08-16T00:40:56.523Z,4.85
2022-08-16T00:43:40.853Z,4.55
2022-08-16T00:46:34.806Z,5.80
2022-08-16T00:49:06.879Z,5.03
2022-08-16T00:51:45.495Z,5.68
2022-08-16T00:54:15.139Z,5.10
2022-08-16T00:56:58.538Z,5.40
2022-08-16T00:59:32.966Z,5.32
2022-08-16T01:02:30.953Z,5.50
2022-08-16T01:05:11.018Z,5.32
2022-08-16T01:07:50.899Z,5.43
2022-08-16T01:10:32.392Z,4.70
2022-08-16T01:13:15.748Z,4.75
2022-08-16T01:16:10.391Z,5.27
2022-08-16T01:18:45.203Z,4.93
2022-08-16T01:21:23.906Z,5.35
2022-08-16T01:24:01.485Z,4.95
2022-08-16T01:26:34.279Z,5.53
2022-08-16T01:29:09.861Z,5.40
2022-08-16T01:31:42.583Z,5.60
2022-08-16T01:34:24.939Z,5.30
2022-08-16T01:37:12.227Z,5.28
2022-08-16T01:39:44.543Z,5.05
2022-08-16T01:42:13.219Z,5.40
2022-08-16T01:44:42.035Z,5.45
2022-08-16T01:47:11.783Z,5.12
2022-08-16T01:50:41.011Z,5.00
2022-08-16T01:52:30.691Z,5.60
2022-08-16T01:55:00.993Z,4.97
2022-08-16T01:57:31.455Z,5.40
2022-08-16T02:00:00.465Z,5.07
2022-08-16T02:02:29.102Z,5.68
2022-08-16T02:04:58.127Z,5.20
2022-08-16T02:07:27.696Z,5.47
2022-08-16T02:09:59.804Z,5.45
2022-08-16T02:12:49.513Z,5.80
2022-08-16T02:15:25.349Z,5.32
2022-08-16T02:17:54.370Z,5.50
2022-08-16T02:20:26.090Z,4.80
2022-08-16T02:22:56.912Z,5.18
2022-08-16T02:25:24.862Z,5.18
2022-08-16T02:28:12.401Z,5.47
2022-08-16T02:30:50.537Z,5.05
2022-08-16T02:33:43.618Z,4.73
2022-08-16T02:36:48.293Z,5.20
2022-08-16T02:39:03.261Z,5.55
2022-08-16T02:41:31.038Z,5.25
2022-08-16T02:44:01.100Z,5.22
2022-08-16T02:46:33.547Z,5.10
2022-08-16T02:49:02.285Z,5.30
2022-08-16T02:51:29.965Z,5.07
2022-08-16T02:53:59.184Z,5.30
2022-08-16T02:56:32.319Z,4.80
2022-08-16T02:59:02.754Z,5.40
2022-08-16T03:01:40.288Z,5.00
2022-08-16T03:04:41.105Z,5.37
2022-08-16T03:06:57.666Z,5.47
2022-08-16T03:09:28.861Z,5.32
2022-08-16T03:12:00.951Z,4.90
2022-08-16T03:14:30.122Z,5.25
2022-08-16T03:16:59.065Z,5.43
2022-08-16T03:19:48.580Z,5.35
2022-08-16T03:22:28.951Z,5.12
2022-08-16T03:25:02.222Z,5.17
2022-08-16T03:27:32.205Z,5.28
2022-08-16T03:30:17.303Z,5.50
2022-08-16T03:32:51.558Z,5.07
2022-08-16T03:35:21.759Z,5.95
2022-08-16T03:38:03.051Z,5.50
2022-08-16T03:40:35.461Z,5.37
2022-08-16T03:43:20.813Z,5.35
2022-08-16T03:45:52.703Z,4.90
2022-08-16T03:48:36.365Z,5.07
2022-08-16T03:51:09.031Z,5.20
2022-08-16T03:53:38.456Z,5.80
2022-08-16T03:56:19.784Z,5.20
2022-08-16T03:58:52.594Z,5.80
2022-08-16T04:01:29.368Z,5.12
2022-08-16T04:03:59.858Z,5.03
2022-08-16T04:06:28.394Z,5.43
2022-08-16T04:08:58.307Z,5.10
2022-08-16T04:11:25.975Z,5.18
2022-08-16T04:14:00.563Z,5.03
2022-08-16T04:16:36.174Z,4.97
2022-08-16T04:19:05.030Z,5.10
2022-08-16T04:21:34.545Z,5.22
2022-08-16T04:24:03.068Z,5.60
2022-08-16T04:26:32.266Z,5.15
2022-08-16T04:29:15.271Z,5.17
2022-08-16T04:31:56.645Z,5.18
2022-08-16T04:34:28.464Z,5.10
2022-08-16T04:36:58.933Z,4.80
2022-08-16T04:39:44.922Z,5.35
2022-08-16T04:42:16.300Z,5.40
2022-08-16T04:44:53.373Z,5.32
2022-08-16T04:47:31.682Z,5.72
2022-08-16T04:50:01.466Z,5.57
2022-08-16T04:52:34.166Z,5.43
2022-08-16T04:55:07.515Z,5.33
2022-08-16T04:57:35.718Z,5.37
2022-08-16T05:00:30.234Z,5.43
2022-08-16T05:03:01.247Z,5.03
2022-08-16T05:05:36.690Z,4.85
2022-08-16T05:08:28.910Z,4.60
2022-08-16T05:11:00.701Z,4.53
2022-08-16T05:13:35.156Z,4.57
2022-08-16T05:16:11.993Z,4.32
2022-08-16T05:18:47.896Z,4.82
2022-08-16T05:21:15.930Z,4.47
2022-08-16T05:23:55.398Z,4.85
2022-08-16T05:26:27.811Z,5.25
2022-08-16T05:28:57.762Z,5.05
2022-08-16T05:31:30.425Z,5.55
2022-08-16T05:34:00.307Z,4.97
2022-08-16T05:36:33.911Z,5.32
2022-08-16T05:39:06.538Z,5.57
2022-08-16T05:41:45.626Z,6.32
2022-08-16T05:44:22.904Z,5.60
2022-08-16T05:47:00.315Z,6.20
2022-08-16T05:49:38.499Z,6.45
2022-08-16T05:52:13.820Z,6.65
2022-08-16T05:54:58.439Z,6.72
2022-08-16T05:57:34.404Z,6.47
2022-08-16T06:00:11.637Z,6.40
2022-08-16T06:02:39.743Z,6.45
2022-08-16T06:05:11.154Z,7.10
2022-08-16T06:07:44.452Z,7.12
2022-08-16T06:10:32.976Z,6.47
2022-08-16T06:13:01.305Z,6.20
2022-08-16T06:15:46.768Z,6.78
2022-08-16T06:18:18.062Z,6.62
2022-08-16T06:20:55.298Z,6.32
2022-08-16T06:23:24.124Z,6.35
2022-08-16T06:25:53.279Z,6.43
2022-08-16T06:28:34.937Z,6.82
2022-08-16T06:31:05.073Z,6.97
2022-08-16T06:33:41.892Z,6.87
2022-08-16T06:36:13.943Z,6.40
2022-08-16T06:38:55.354Z,6.40
2022-08-16T06:41:27.411Z,6.00
2022-08-16T06:43:56.498Z,5.60
2022-08-16T06:46:31.666Z,5.85
2022-08-16T06:49:02.305Z,5.85
2022-08-16T06:51:46.106Z,6.50
2022-08-16T06:54:16.250Z,5.87
2022-08-16T06:56:44.445Z,5.97
2022-08-16T06:59:13.965Z,6.37
2022-08-16T07:01:45.045Z,6.15
2022-08-16T07:04:33.068Z,6.43
2022-08-16T07:07:09.666Z,5.95
2022-08-16T07:09:42.013Z,6.15
2022-08-16T07:12:10.522Z,6.47
2022-08-16T07:14:38.287Z,6.12
2022-08-16T07:17:08.219Z,5.70
2022-08-16T07:20:03.813Z,5.75
2022-08-16T07:22:37.719Z,6.10
2022-08-16T07:25:22.832Z,5.93
2022-08-16T07:27:50.896Z,5.28
2022-08-16T07:30:39.841Z,5.23
2022-08-16T07:33:09.401Z,5.20
2022-08-16T07:35:44.330Z,5.70
2022-08-16T07:38:19.479Z,5.30
2022-08-16T07:40:59.514Z,5.60
2022-08-16T07:43:30.433Z,6.10
2022-08-16T07:45:59.505Z,5.50
2022-08-16T07:48:29.428Z,5.12
2022-08-16T07:50:59.257Z,5.28
2022-08-16T07:53:33.918Z,4.90
2022-08-16T07:56:10.885Z,5.10
2022-08-16T07:58:38.551Z,4.97
2022-08-16T08:01:10.888Z,4.53
2022-08-16T08:03:48.836Z,4.20
2022-08-16T08:06:25.086Z,3.90
2022-08-16T08:08:57.578Z,3.93
2022-08-16T08:11:28.618Z,4.25
2022-08-16T08:13:57.570Z,4.05
2022-08-16T08:16:35.703Z,3.97
2022-08-16T08:19:03.536Z,4.15
2022-08-16T08:21:59.558Z,3.80
2022-08-16T08:24:31.593Z,3.53
2022-08-16T08:27:04.382Z,3.40
2022-08-16T08:29:37.120Z,3.35
2022-08-16T08:32:58.397Z,3.20
2022-08-16T08:35:03.726Z,3.40
2022-08-16T08:37:54.654Z,3.85
2022-08-16T08:40:24.637Z,3.87
2022-08-16T08:43:00.948Z,3.92
2022-08-16T08:45:47.393Z,3.42
2022-08-16T08:48:33.836Z,3.83
2022-08-16T08:51:10.334Z,3.75
2022-08-16T08:53:41.540Z,3.35
2022-08-16T08:56:23.511Z,3.67
2022-08-16T08:58:58.076Z,3.83
2022-08-16T09:01:31.865Z,3.53
2022-08-16T09:04:07.129Z,3.85
2022-08-16T09:06:36.571Z,3.80
2022-08-16T09:09:16.612Z,3.78
2022-08-16T09:11:53.839Z,3.67
2022-08-16T09:14:36.024Z,3.93
2022-08-16T09:17:14.193Z,3.60
2022-08-16T09:19:57.157Z,3.80
2022-08-16T09:22:28.186Z,3.75
2022-08-16T09:25:04.412Z,3.80
2022-08-16T09:27:56.663Z,3.70
2022-08-16T09:30:34.096Z,3.60
2022-08-16T09:33:10.641Z,2.95
2022-08-16T09:35:42.461Z,3.20
2022-08-16T09:38:31.125Z,3.03
2022-08-16T09:41:02.074Z,3.33
2022-08-16T09:43:59.283Z,3.72
2022-08-16T09:46:44.615Z,3.45
2022-08-16T09:49:05.198Z,3.35
2022-08-16T09:51:41.481Z,3.10
2022-08-16T09:54:10.775Z,3.13
2022-08-16T09:56:52.739Z,3.30
2022-08-16T09:59:23.640Z,3.25
2022-08-16T10:01:54.497Z,2.85
2022-08-16T10:04:31.261Z,3.03
2022-08-16T10:07:15.511Z,3.30
2022-08-16T10:09:53.477Z,3.25
2022-08-16T10:12:55.803Z,3.25
2022-08-16T10:15:30.042Z,3.10
2022-08-16T10:18:00.024Z,3.40
2022-08-16T10:20:34.986Z,3.37
2022-08-16T10:23:07.389Z,3.20
2022-08-16T10:27:17.873Z,3.85
2022-08-16T10:28:32.416Z,3.10
2022-08-16T10:31:08.190Z,3.17
2022-08-16T10:33:41.221Z,3.17
2022-08-16T10:36:39.057Z,3.50
2022-08-16T10:39:04.345Z,3.62
2022-08-16T10:41:34.646Z,3.40
2022-08-16T10:44:02.507Z,3.40
2022-08-16T10:46:39.515Z,3.57
2022-08-16T10:49:16.704Z,3.37
2022-08-16T10:52:02.296Z,3.33
2022-08-16T10:54:33.996Z,3.42
2022-08-16T10:57:24.401Z,3.33
2022-08-16T10:59:57.837Z,3.50
2022-08-16T11:03:37.517Z,3.87
2022-08-16T11:05:18.206Z,3.40
2022-08-16T11:07:51.951Z,3.42
2022-08-16T11:19:04.077Z,3.70
2022-08-16T11:21:37.610Z,3.62
2022-08-16T11:24:39.872Z,3.53
2022-08-16T11:27:32.796Z,3.42
2022-08-16T11:30:03.493Z,3.70
2022-08-16T11:32:37.573Z,4.00
2022-08-16T11:35:15.901Z,4.30
2022-08-16T11:38:24.029Z,3.50
2022-08-16T11:40:56.715Z,3.67
2022-08-16T11:43:28.879Z,3.90
2022-08-16T11:46:43.075Z,3.03
2022-08-16T11:48:51.797Z,3.47
2022-08-16T11:51:19.674Z,2.63
2022-08-16T11:53:52.404Z,2.50
2022-08-16T11:56:37.636Z,2.20
2022-08-16T11:59:09.927Z,2.53
2022-08-16T12:01:44.557Z,2.90
2022-08-16T12:04:27.940Z,2.70
2022-08-16T12:06:55.699Z,3.28
2022-08-16T12:09:24.930Z,3.35
2022-08-16T12:12:02.939Z,3.45
2022-08-16T12:14:35.478Z,2.90
2022-08-16T12:17:08.441Z,3.00
2022-08-16T12:19:36.543Z,3.22
2022-08-16T12:22:18.585Z,3.22
2022-08-16T12:24:51.926Z,2.97
2022-08-16T12:27:24.594Z,3.25
2022-08-16T12:29:58.654Z,2.90
2022-08-16T12:32:39.364Z,3.20
2022-08-16T12:35:14.127Z,2.70
2022-08-16T12:37:43.589Z,3.10
2022-08-16T12:40:23.846Z,3.20
2022-08-16T12:42:58.855Z,2.87
2022-08-16T12:45:30.049Z,3.47
2022-08-16T12:48:32.719Z,3.20
2022-08-16T12:51:02.114Z,2.50
2022-08-16T12:53:31.899Z,2.50
2022-08-16T12:56:01.502Z,2.80
2022-08-16T12:58:50.185Z,2.72
2022-08-16T13:01:22.769Z,3.00
2022-08-16T13:04:08.331Z,3.10
2022-08-16T13:06:42.115Z,3.28
2022-08-16T13:09:23.538Z,3.00
2022-08-16T13:12:05.567Z,3.10
2022-08-16T13:14:38.579Z,3.42
2022-08-16T13:17:10.244Z,3.55
2022-08-16T13:20:06.672Z,3.12
2022-08-16T13:22:29.417Z,3.50
2022-08-16T13:24:59.101Z,3.50
2022-08-16T13:27:35.009Z,3.47
2022-08-16T13:30:35.579Z,4.10
2022-08-16T13:33:12.746Z,3.90
2022-08-16T13:35:44.928Z,3.80
2022-08-16T13:38:21.553Z,3.70
2022-08-16T13:40:55.863Z,3.28
2022-08-16T13:43:27.343Z,3.20
2022-08-16T13:45:56.989Z,3.33
2022-08-16T13:48:42.844Z,3.30
2022-08-16T13:51:17.113Z,3.60
2022-08-16T13:53:59.669Z,3.30
2022-08-16T13:56:34.222Z,3.00
2022-08-16T13:59:14.347Z,3.60
2022-08-16T14:01:55.284Z,3.00
2022-08-16T14:04:35.375Z,3.40
2022-08-16T14:07:07.466Z,3.47
2022-08-16T14:09:36.569Z,3.40
2022-08-16T14:12:09.869Z,3.60
2022-08-16T14:14:45.463Z,3.50
2022-08-16T14:17:16.748Z,3.17
2022-08-16T14:19:47.968Z,3.50
2022-08-16T14:22:30.679Z,3.58
2022-08-16T14:25:03.459Z,3.60
2022-08-16T14:27:42.043Z,3.57
2022-08-16T14:30:15.815Z,3.30
2022-08-16T14:32:46.788Z,3.20
2022-08-16T14:35:36.888Z,2.90
2022-08-16T14:38:18.193Z,3.22
2022-08-16T14:40:52.849Z,3.30
2022-08-16T14:43:23.062Z,3.40
2022-08-16T14:45:50.840Z,3.50
2022-08-16T14:48:26.378Z,3.12
2022-08-16T14:50:55.302Z,3.05
2022-08-16T14:53:24.507Z,3.10
2022-08-16T14:55:52.568Z,3.20
2022-08-16T14:58:34.457Z,3.12
2022-08-16T15:01:10.305Z,2.97
2022-08-16T15:03:38.373Z,2.70
2022-08-16T15:06:13.094Z,2.70
2022-08-16T15:08:42.303Z,3.00
2022-08-16T15:11:15.445Z,3.05
2022-08-16T15:13:45.383Z,2.67
2022-08-16T15:16:15.111Z,3.08
2022-08-16T15:18:46.678Z,2.60
2022-08-16T15:21:14.559Z,2.50
2022-08-16T15:23:44.642Z,2.58
2022-08-16T15:26:18.780Z,2.60
2022-08-16T15:29:03.901Z,2.60
2022-08-16T15:31:31.610Z,2.70
2022-08-16T15:33:59.471Z,2.50
2022-08-16T15:36:28.084Z,2.85
2022-08-16T15:39:07.084Z,3.00
2022-08-16T15:41:46.887Z,2.70
2022-08-16T15:44:22.663Z,2.70
2022-08-16T15:46:56.271Z,2.25
2022-08-16T15:49:37.961Z,2.22
2022-08-16T15:52:18.374Z,1.90
2022-08-16T15:54:53.001Z,2.45
2022-08-16T15:57:22.067Z,2.30
2022-08-16T15:59:52.378Z,2.35
2022-08-16T16:02:29.771Z,2.58
2022-08-16T16:05:09.897Z,2.60
2022-08-16T16:07:55.934Z,2.40
2022-08-16T16:10:29.335Z,2.30
2022-08-16T16:12:59.765Z,2.22
2022-08-16T16:15:31.425Z,2.30
2022-08-16T16:18:05.306Z,2.55
2022-08-16T16:20:39.193Z,2.83
2022-08-16T16:23:10.356Z,2.50
2022-08-16T16:25:44.028Z,2.78
2022-08-16T16:29:05.765Z,2.92
2022-08-16T16:31:06.441Z,2.62
2022-08-16T16:33:36.966Z,2.10
2022-08-16T16:36:06.961Z,2.67
2022-08-16T16:38:35.512Z,2.72
2022-08-16T16:41:09.292Z,3.00
2022-08-16T16:43:40.594Z,3.00
2022-08-16T16:46:40.883Z,3.37
2022-08-16T16:49:00.463Z,3.13
2022-08-16T16:51:32.151Z,2.95
2022-08-16T16:54:09.588Z,2.92
2022-08-16T16:56:49.852Z,3.20
2022-08-16T16:59:18.260Z,3.22
2022-08-16T17:01:57.546Z,3.03
2022-08-16T17:04:43.046Z,3.33
2022-08-16T17:07:12.189Z,3.92
2022-08-16T17:09:41.277Z,3.42
2022-08-16T17:12:15.413Z,2.83
2022-08-16T17:14:58.889Z,3.20
2022-08-16T17:17:27.240Z,3.72
2022-08-16T17:19:57.348Z,3.65
2022-08-16T17:22:33.052Z,3.47
2022-08-16T17:25:01.557Z,3.35
2022-08-16T17:27:33.768Z,3.77
2022-08-16T17:30:17.806Z,3.10
2022-08-16T17:32:50.563Z,3.30
2022-08-16T17:35:33.612Z,3.25
2022-08-16T17:38:06.142Z,3.65
2022-08-16T17:40:47.091Z,3.17
2022-08-16T17:43:29.079Z,2.95
2022-08-16T17:45:57.399Z,3.37
2022-08-16T17:48:25.683Z,3.30
2022-08-16T17:50:54.828Z,3.40
2022-08-16T17:53:23.518Z,3.27
2022-08-16T17:55:54.629Z,2.97
2022-08-16T17:58:24.306Z,3.28
2022-08-16T18:00:57.988Z,3.50
2022-08-16T18:04:06.477Z,3.67
2022-08-16T18:06:25.578Z,3.30
2022-08-16T18:09:02.619Z,3.40
2022-08-16T18:11:40.790Z,3.20
2022-08-16T18:14:09.654Z,3.25
2022-08-16T18:16:37.402Z,2.80
2022-08-16T18:19:05.287Z,2.93
2022-08-16T18:21:53.002Z,3.10
2022-08-16T18:24:23.562Z,3.25
2022-08-16T18:26:53.863Z,3.20
2022-08-16T18:29:25.424Z,3.30
2022-08-16T18:31:53.124Z,3.47
2022-08-16T18:34:23.201Z,3.35
2022-08-16T18:36:51.070Z,3.53
2022-08-16T18:39:21.621Z,3.30
2022-08-16T18:41:51.693Z,3.22
2022-08-16T18:44:25.546Z,3.20
2022-08-16T18:46:57.293Z,3.47
2022-08-16T18:49:25.024Z,3.20
2022-08-16T18:51:58.014Z,3.20
2022-08-16T18:54:26.537Z,3.20
2022-08-16T18:56:57.361Z,3.30
2022-08-16T18:59:32.624Z,3.58
2022-08-16T19:02:04.266Z,3.67
2022-08-16T19:04:48.157Z,3.35
2022-08-16T19:07:30.579Z,4.32
2022-08-16T19:09:59.130Z,3.23
2022-08-16T19:12:38.501Z,3.37
2022-08-16T19:15:15.618Z,12.75
2022-08-16T19:17:44.590Z,4.55
2022-08-16T19:20:13.807Z,3.37
2022-08-16T19:25:48.697Z,3.40
2022-08-16T19:28:49.524Z,3.60
2022-08-16T19:33:57.514Z,3.95
2022-08-16T19:36:35.417Z,3.93
2022-08-16T19:39:08.798Z,3.30
2022-08-16T19:41:40.214Z,3.58
2022-08-16T19:44:10.981Z,3.47
2022-08-16T19:46:41.725Z,3.37
2022-08-16T19:49:16.399Z,3.60
2022-08-16T19:51:46.071Z,3.62
2022-08-16T19:54:14.125Z,3.58
2022-08-16T19:56:43.031Z,3.10
2022-08-16T19:59:19.723Z,3.40
2022-08-16T20:01:49.296Z,3.30
2022-08-16T20:04:16.862Z,3.25
2022-08-16T20:06:44.606Z,3.28
2022-08-16T20:09:15.391Z,3.20
2022-08-16T20:11:49.603Z,3.42
2022-08-16T20:14:25.806Z,3.37
2022-08-16T20:16:56.363Z,3.42
2022-08-16T20:19:24.400Z,3.40
2022-08-16T20:21:52.056Z,3.10
2022-08-16T20:24:36.216Z,3.50
2022-08-16T20:27:11.113Z,3.67
2022-08-16T20:29:44.178Z,3.40
2022-08-16T20:32:15.360Z,3.53
2022-08-16T20:34:44.847Z,3.50
2022-08-16T20:37:13.211Z,3.80
2022-08-16T20:39:44.187Z,3.40
2022-08-16T20:42:15.898Z,3.47
2022-08-16T20:44:45.512Z,3.53
2022-08-16T20:47:13.173Z,3.15
2022-08-16T20:49:41.322Z,3.75
2022-08-16T20:52:13.519Z,3.60
2022-08-16T20:54:41.467Z,3.10
2022-08-16T20:57:09.199Z,3.60
2022-08-16T20:59:37.328Z,3.40
2022-08-16T21:02:04.909Z,3.42
2022-08-16T21:04:32.551Z,3.30
2022-08-16T21:07:00.295Z,3.25
2022-08-16T21:09:32.660Z,3.70
2022-08-16T21:12:03.936Z,3.35
2022-08-16T21:14:34.046Z,3.83
2022-08-16T21:17:03.632Z,3.43
2022-08-16T21:19:31.869Z,3.37
2022-08-16T21:22:10.708Z,3.90
2022-08-16T21:24:38.353Z,2.95
2022-08-16T21:27:06.123Z,3.17
2022-08-16T21:29:42.675Z,3.27
2022-08-16T21:32:19.273Z,3.53
2022-08-16T21:35:09.793Z,3.08
2022-08-16T21:37:37.415Z,3.45
2022-08-16T21:40:09.239Z,3.90
2022-08-16T21:42:39.576Z,3.67
2022-08-16T21:45:09.192Z,3.92
2022-08-16T21:47:36.821Z,3.40
2022-08-16T21:50:07.423Z,3.80
2022-08-16T21:52:35.210Z,3.85
2022-08-16T21:55:02.782Z,4.00
2022-08-16T21:57:35.294Z,3.60
2022-08-16T22:00:03.334Z,4.03
2022-08-16T22:02:38.964Z,4.28
2022-08-16T22:05:07.074Z,3.85
2022-08-16T22:07:34.626Z,4.00
2022-08-16T22:11:00.407Z,4.07
2022-08-16T22:12:55.744Z,4.25
2022-08-16T22:15:26.067Z,4.22
2022-08-16T22:17:55.358Z,5.12
2022-08-16T22:20:26.875Z,3.90
2022-08-16T22:23:09.573Z,4.18
2022-08-16T22:25:40.306Z,4.05
2022-08-16T22:28:07.936Z,4.30
2022-08-16T22:30:38.368Z,4.03
2022-08-16T22:33:21.062Z,4.27
2022-08-16T22:35:53.649Z,3.50
2022-08-16T22:38:54.813Z,4.28
2022-08-16T22:41:09.661Z,3.92
2022-08-16T22:43:38.046Z,4.20
2022-08-16T22:46:05.720Z,3.80
2022-08-16T22:48:39.405Z,4.07
2022-08-16T22:51:11.582Z,4.28
2022-08-16T22:53:41.628Z,3.92
2022-08-16T22:56:09.792Z,4.15
2022-08-16T22:58:37.523Z,3.80
2022-08-16T23:01:08.044Z,4.10
2022-08-16T23:03:36.589Z,4.00
2022-08-16T23:06:07.512Z,4.10
2022-08-16T23:08:40.674Z,3.83
2022-08-16T23:11:15.228Z,4.07
2022-08-16T23:13:53.086Z,4.00
2022-08-16T23:16:33.447Z,4.10
2022-08-16T23:19:14.798Z,4.25
2022-08-16T23:21:45.331Z,3.83
2022-08-16T23:24:13.955Z,4.40
2022-08-16T23:26:47.205Z,3.53
2022-08-16T23:29:23.629Z,4.28
2022-08-16T23:31:59.316Z,4.03
2022-08-16T23:34:28.702Z,4.20
2022-08-16T23:36:58.855Z,4.20
2022-08-16T23:39:27.029Z,3.70
2022-08-16T23:41:55.603Z,3.80
2022-08-16T23:44:56.147Z,3.50
2022-08-16T23:47:10.993Z,3.90
2022-08-16T23:49:57.515Z,3.60
2022-08-16T23:52:42.236Z,3.25
2022-08-16T23:55:18.722Z,3.30
2022-08-16T23:57:47.253Z,3.30
